map of YOL home
YOL - Airport
Location
City:  Yola, Adamawa, Nigeria
Name:Yola Airport
ICAO:DNYO
IATA:YOL

Details
Type:Airport (Aerodrome, Airfield)
Use:Public/Civil
Latitude:915'27"N (9.257553)
Longitude:1225'50"E (12.430422)
Datum:WGS 1984
Elevation:599 ft (183 m)
Variation:0.44E (WMM2015 magnetic declination)
0.10 annual change
Runways:2
Longest:9840 × 148 ft (2999 × 45 m), paved

Time
Time Zone:UTC+1
Local Time:

Weather
METAR:DNYO 110900Z 12006KT CAVOK 28/08 Q1017 NOSIG
TAF:DNYO 111530Z 1118/1224 00000KT CAVOK
BECMG 1208/1210 09008KT

Related Locations
Nearby:
Farthest:FTI: 12069 mi / 19423 km
Fitiuta Village, AS

Find:

   beyond  
but within

Other Information
Maps:
NOTAMs:
Links:
Sources:

  
  • flag of Nigeria
  

Sectional Chart

Flight Planning
at skyvector.com

Satellite Image

Google Maps Satellite view

 

Copyright © 2004-2018 Karl L. Swartz. All rights reserved.
The Great Circle Mapper name and logo are trademarks of the Great Circle Mapper.
All other trademarks mentioned herein belong to their respective owners.
Please see credits for attibutions and further copyright information.

  Follow gcmap on Facebook Follow gcmap on Twitter Follow gcmap on Google+ GCmap on LinkedIn

hCard Microformat

Geo Microformat